createdAt,value
2019-03-21T00:01:09.217Z,82.15
2019-03-21T00:03:38.815Z,83.69
2019-03-21T00:06:09.574Z,83.25
2019-03-21T00:08:39.292Z,83.88
2019-03-21T00:11:44.162Z,83.73
2019-03-21T00:14:22.359Z,83.60
2019-03-21T00:16:52.442Z,83.79
2019-03-21T00:19:22.089Z,83.20
2019-03-21T00:21:51.763Z,83.05
2019-03-21T00:24:21.493Z,83.12
2019-03-21T00:26:52.214Z,82.99
2019-03-21T00:29:21.906Z,83.27
2019-03-21T00:31:53.577Z,84.20
2019-03-21T00:34:24.511Z,86.12
2019-03-21T00:36:54.112Z,86.70
2019-03-21T00:39:32.630Z,86.15
2019-03-21T00:42:00.165Z,85.16
2019-03-21T00:44:29.763Z,84.54
2019-03-21T00:46:59.385Z,84.47
2019-03-21T00:49:30.255Z,84.81
2019-03-21T00:52:02.476Z,85.56
2019-03-21T00:54:34.470Z,85.64
2019-03-21T00:57:04.328Z,85.32
2019-03-21T00:59:35.364Z,84.76
2019-03-21T01:02:05.069Z,84.52
2019-03-21T01:04:35.556Z,84.27
2019-03-21T01:07:05.485Z,83.91
2019-03-21T01:09:36.435Z,84.39
2019-03-21T01:12:06.266Z,84.25
2019-03-21T01:14:35.918Z,84.24
2019-03-21T01:17:05.577Z,84.74
2019-03-21T01:19:35.185Z,84.52
2019-03-21T01:22:04.846Z,84.50
2019-03-21T01:24:35.577Z,84.50
2019-03-21T01:27:05.290Z,84.15
2019-03-21T01:29:35.022Z,84.95
2019-03-21T01:32:04.661Z,84.82
2019-03-21T01:34:36.553Z,84.63
2019-03-21T01:37:06.268Z,85.02
2019-03-21T01:39:37.459Z,85.51
2019-03-21T01:42:07.059Z,85.68
2019-03-21T01:44:40.925Z,85.93
2019-03-21T01:47:08.174Z,85.70
2019-03-21T01:49:38.956Z,85.48
2019-03-21T01:52:08.725Z,85.18
2019-03-21T01:54:38.354Z,84.99
2019-03-21T01:57:08.025Z,85.26
2019-03-21T01:59:39.062Z,84.91
2019-03-21T02:02:08.682Z,84.45
2019-03-21T02:04:38.271Z,85.47
2019-03-21T02:07:07.858Z,85.46
2019-03-21T02:09:37.524Z,85.02
2019-03-21T02:12:07.175Z,85.60
2019-03-21T02:14:36.879Z,85.29
2019-03-21T02:17:06.571Z,85.50
2019-03-21T02:19:38.230Z,85.40
2019-03-21T02:22:07.883Z,84.29
2019-03-21T02:24:38.828Z,84.83
2019-03-21T02:27:08.410Z,85.77
2019-03-21T02:29:39.315Z,85.67
2019-03-21T02:32:08.901Z,85.77
2019-03-21T02:34:38.556Z,85.85
2019-03-21T02:37:08.298Z,85.45
2019-03-21T02:39:38.006Z,85.87
2019-03-21T02:42:08.052Z,85.43
2019-03-21T02:44:37.670Z,85.06
2019-03-21T02:47:07.241Z,85.72
2019-03-21T02:49:36.996Z,85.91
2019-03-21T02:52:06.649Z,86.99
2019-03-21T02:54:36.273Z,86.47
2019-03-21T02:57:05.886Z,86.32
2019-03-21T02:59:35.495Z,84.92
2019-03-21T03:02:05.163Z,85.85
2019-03-21T03:04:34.810Z,84.74
2019-03-21T03:07:04.414Z,87.45
2019-03-21T03:09:35.371Z,87.87
2019-03-21T03:12:05.169Z,88.27
2019-03-21T03:14:36.934Z,87.52
2019-03-21T03:17:06.539Z,87.30
2019-03-21T03:19:36.207Z,88.24
2019-03-21T03:22:06.044Z,88.69
2019-03-21T03:24:38.115Z,87.32
2019-03-21T03:27:07.743Z,89.31
2019-03-21T03:29:37.492Z,89.18
2019-03-21T03:32:07.012Z,87.47
2019-03-21T03:34:36.713Z,86.61
2019-03-21T03:37:06.338Z,88.33
2019-03-21T03:39:39.500Z,88.86
2019-03-21T03:42:10.056Z,89.03
2019-03-21T03:44:39.746Z,88.81
2019-03-21T03:47:09.350Z,86.75
2019-03-21T03:49:38.971Z,86.61
2019-03-21T03:52:08.619Z,86.54
2019-03-21T03:54:38.276Z,84.98
2019-03-21T03:57:07.868Z,86.88
2019-03-21T03:59:37.700Z,88.26
2019-03-21T04:02:07.378Z,88.16
2019-03-21T04:04:37.059Z,88.94
2019-03-21T04:07:06.652Z,88.41
2019-03-21T04:09:36.313Z,88.74
2019-03-21T04:12:05.849Z,89.45
2019-03-21T04:14:36.006Z,89.72
2019-03-21T04:17:05.566Z,90.04
2019-03-21T04:19:35.201Z,88.86
2019-03-21T04:22:04.963Z,88.40
2019-03-21T04:24:34.629Z,88.16
2019-03-21T04:27:06.297Z,87.29
2019-03-21T04:29:35.987Z,86.38
2019-03-21T04:32:05.791Z,87.66
2019-03-21T04:34:35.430Z,87.32
2019-03-21T04:37:05.028Z,86.25
2019-03-21T04:39:36.926Z,87.09
2019-03-21T04:42:07.210Z,87.81
2019-03-21T04:44:36.860Z,88.40
2019-03-21T04:47:06.536Z,88.32
2019-03-21T04:49:36.165Z,87.08
2019-03-21T04:52:05.869Z,86.73
2019-03-21T04:54:35.595Z,86.46
2019-03-21T04:57:05.356Z,86.21
2019-03-21T04:59:35.063Z,86.99
2019-03-21T05:02:04.757Z,86.86
2019-03-21T05:04:36.447Z,87.84
2019-03-21T05:07:06.033Z,89.50
2019-03-21T05:09:35.717Z,90.05
2019-03-21T05:12:06.399Z,90.92
2019-03-21T05:14:36.358Z,90.56
2019-03-21T05:17:06.124Z,89.87
2019-03-21T05:19:35.704Z,88.98
2019-03-21T05:22:05.318Z,89.79
2019-03-21T05:24:37.226Z,89.35
2019-03-21T05:27:06.957Z,87.44
2019-03-21T05:29:36.997Z,87.27
2019-03-21T05:32:07.673Z,87.02
2019-03-21T05:34:37.425Z,88.09
2019-03-21T05:37:07.097Z,88.27
2019-03-21T05:39:36.696Z,87.71
2019-03-21T05:42:11.020Z,86.88
2019-03-21T05:44:43.089Z,86.54
2019-03-21T05:47:13.077Z,85.99
2019-03-21T05:49:42.697Z,85.74
2019-03-21T05:52:13.779Z,85.46
2019-03-21T05:54:43.465Z,86.20
2019-03-21T05:57:13.143Z,86.18
2019-03-21T05:59:42.790Z,85.92
2019-03-21T06:02:12.515Z,85.72
2019-03-21T06:04:42.176Z,86.02
2019-03-21T06:07:31.618Z,85.77
2019-03-21T06:10:01.337Z,86.36
2019-03-21T06:12:31.519Z,85.68
2019-03-21T06:15:04.204Z,85.86
2019-03-21T06:17:38.556Z,85.24
2019-03-21T06:20:48.750Z,84.95
2019-03-21T06:23:35.690Z,86.47
2019-03-21T06:26:19.971Z,83.62
2019-03-21T06:28:49.595Z,85.60
2019-03-21T06:31:19.384Z,84.79
2019-03-21T06:33:49.055Z,85.42
2019-03-21T06:36:18.932Z,85.04
2019-03-21T06:38:48.628Z,86.92
2019-03-21T06:41:18.384Z,87.11
2019-03-21T06:43:47.990Z,83.15
2019-03-21T06:46:17.596Z,85.84
2019-03-21T06:48:47.266Z,86.65
2019-03-21T06:51:16.925Z,86.27
2019-03-21T06:53:46.631Z,87.91
2019-03-21T06:56:16.271Z,87.26
2019-03-21T06:58:45.953Z,83.44
2019-03-21T07:01:15.605Z,83.07
2019-03-21T07:03:45.297Z,82.88
2019-03-21T07:06:15.100Z,78.63
2019-03-21T07:08:44.721Z,72.24
2019-03-21T07:11:14.459Z,77.42
2019-03-21T07:13:47.176Z,74.00
2019-03-21T07:16:16.807Z,75.59
2019-03-21T07:18:46.509Z,73.03
2019-03-21T07:21:16.195Z,69.46
2019-03-21T07:23:45.940Z,70.49
2019-03-21T07:26:15.543Z,67.79
2019-03-21T07:28:45.352Z,63.98
2019-03-21T07:31:15.116Z,66.37
2019-03-21T07:33:44.757Z,60.95
2019-03-21T07:36:18.789Z,61.93
2019-03-21T07:38:48.424Z,64.33
2019-03-21T07:41:18.041Z,59.52
2019-03-21T07:43:47.701Z,60.19
2019-03-21T07:46:17.376Z,58.15
2019-03-21T07:48:47.019Z,58.16
2019-03-21T07:51:16.702Z,59.56
2019-03-21T07:53:46.357Z,59.91
2019-03-21T07:56:18.061Z,58.66
2019-03-21T07:58:47.833Z,60.57
2019-03-21T08:01:17.624Z,61.47
2019-03-21T08:03:49.067Z,57.66
2019-03-21T08:06:18.883Z,55.87
2019-03-21T08:08:48.556Z,56.22
2019-03-21T08:11:33.744Z,54.54
2019-03-21T08:14:04.609Z,55.60
2019-03-21T08:16:34.297Z,56.60
2019-03-21T08:19:04.050Z,55.63
2019-03-21T08:21:36.000Z,54.01
2019-03-21T08:24:07.301Z,55.06
2019-03-21T08:26:36.938Z,51.41
2019-03-21T08:29:06.596Z,50.87
2019-03-21T08:31:36.221Z,49.26
2019-03-21T08:34:09.123Z,50.54
2019-03-21T08:36:39.841Z,52.01
2019-03-21T08:39:09.910Z,53.00
2019-03-21T08:41:39.792Z,50.37
2019-03-21T08:44:09.441Z,49.94
2019-03-21T08:46:39.201Z,46.78
2019-03-21T08:49:08.762Z,46.24
2019-03-21T08:51:40.705Z,47.03
2019-03-21T08:54:11.444Z,44.67
2019-03-21T08:56:41.190Z,42.95
2019-03-21T08:59:10.885Z,41.17
2019-03-21T09:01:41.718Z,43.58
2019-03-21T09:04:11.374Z,43.21
2019-03-21T09:06:40.918Z,44.10
2019-03-21T09:09:11.110Z,43.91
2019-03-21T09:11:41.908Z,44.48
2019-03-21T09:14:11.652Z,41.30
2019-03-21T09:16:43.329Z,42.30
2019-03-21T09:19:13.583Z,41.38
2019-03-21T09:21:44.829Z,41.18
2019-03-21T09:24:16.495Z,41.76
2019-03-21T09:26:46.170Z,39.05
2019-03-21T09:29:15.803Z,39.36
2019-03-21T09:31:46.862Z,37.68
2019-03-21T09:34:20.710Z,39.29
2019-03-21T09:36:50.469Z,36.81
2019-03-21T09:39:20.145Z,34.47
2019-03-21T09:41:50.976Z,34.40
2019-03-21T09:44:30.705Z,32.06
2019-03-21T09:47:00.395Z,32.56
2019-03-21T09:49:30.026Z,32.47
2019-03-21T09:52:00.986Z,33.94
2019-03-21T09:54:30.674Z,33.20
2019-03-21T09:57:00.261Z,33.61
2019-03-21T09:59:32.316Z,33.64
2019-03-21T10:02:03.589Z,30.87
2019-03-21T10:04:35.431Z,30.99
2019-03-21T10:07:05.030Z,31.76
2019-03-21T10:09:36.693Z,33.10
2019-03-21T10:12:07.896Z,33.40
2019-03-21T10:14:39.929Z,31.38
2019-03-21T10:17:09.623Z,30.19
2019-03-21T10:19:39.356Z,30.65
2019-03-21T10:22:10.173Z,31.96
2019-03-21T10:24:39.815Z,31.18
2019-03-21T10:27:09.450Z,31.16
2019-03-21T10:29:39.099Z,28.75
2019-03-21T10:32:14.584Z,30.90
2019-03-21T10:34:44.954Z,31.66
2019-03-21T10:37:15.820Z,32.03
2019-03-21T10:39:45.485Z,29.75
2019-03-21T10:42:16.154Z,29.94
2019-03-21T10:44:46.716Z,29.24
2019-03-21T10:47:19.954Z,30.13
2019-03-21T10:49:49.638Z,30.01
2019-03-21T10:52:19.998Z,29.82
2019-03-21T10:54:49.734Z,29.56
2019-03-21T10:57:19.282Z,28.22
2019-03-21T10:59:48.905Z,28.64
2019-03-21T11:02:18.490Z,29.73
2019-03-21T11:04:50.809Z,28.63
2019-03-21T11:07:18.360Z,30.31
2019-03-21T11:09:48.316Z,27.76
2019-03-21T11:12:17.892Z,27.83
2019-03-21T11:14:47.499Z,29.94
2019-03-21T11:17:17.091Z,29.21
2019-03-21T11:19:46.835Z,27.49
2019-03-21T11:22:16.539Z,28.17
2019-03-21T11:24:46.111Z,29.60
2019-03-21T11:27:15.706Z,28.87
2019-03-21T11:29:45.326Z,29.18
2019-03-21T11:32:14.918Z,29.01
2019-03-21T11:34:44.496Z,29.02
2019-03-21T11:37:14.117Z,27.45
2019-03-21T11:39:43.707Z,26.62
2019-03-21T11:42:13.477Z,26.55
2019-03-21T11:44:43.110Z,26.57
2019-03-21T11:47:12.709Z,25.72
2019-03-21T11:49:42.278Z,28.09
2019-03-21T11:52:18.456Z,27.83
2019-03-21T11:54:46.666Z,27.59
2019-03-21T11:57:16.238Z,25.24
2019-03-21T11:59:51.994Z,25.44
2019-03-21T12:02:26.995Z,27.06
2019-03-21T12:04:49.957Z,26.91
2019-03-21T12:07:19.589Z,24.30
2019-03-21T12:09:49.184Z,26.17
2019-03-21T12:12:20.224Z,24.40
2019-03-21T12:14:49.812Z,23.75
2019-03-21T12:17:21.747Z,23.71
2019-03-21T12:19:51.429Z,23.46
2019-03-21T12:22:31.613Z,25.16
2019-03-21T12:25:01.175Z,23.27
2019-03-21T12:27:30.788Z,23.94
2019-03-21T12:30:01.568Z,24.30
2019-03-21T12:32:31.212Z,24.96
2019-03-21T12:35:00.800Z,24.20
2019-03-21T12:37:30.428Z,23.01
2019-03-21T12:40:00.013Z,23.48
2019-03-21T12:42:29.636Z,25.63
2019-03-21T12:44:59.237Z,24.69
2019-03-21T12:47:31.408Z,25.89
2019-03-21T12:50:00.320Z,25.40
2019-03-21T12:55:01.964Z,22.54
2019-03-21T12:57:33.634Z,24.46
2019-03-21T13:00:03.244Z,25.78
2019-03-21T13:02:34.193Z,25.15
2019-03-21T13:05:04.045Z,26.10
2019-03-21T13:07:13.063Z,23.88
2019-03-21T13:07:33.728Z,25.12
2019-03-21T13:10:03.324Z,25.10
2019-03-21T13:12:35.077Z,26.41
2019-03-21T13:15:06.283Z,28.10
2019-03-21T13:17:35.930Z,27.44
2019-03-21T13:20:05.717Z,27.71
2019-03-21T13:22:36.758Z,26.69
2019-03-21T13:25:06.474Z,26.74
2019-03-21T13:27:36.085Z,24.74
2019-03-21T13:30:06.159Z,26.66
2019-03-21T13:32:37.189Z,26.57
2019-03-21T13:35:09.117Z,26.51
2019-03-21T13:37:38.785Z,27.72
2019-03-21T13:40:08.521Z,27.26
2019-03-21T13:42:39.216Z,26.71
2019-03-21T13:45:08.781Z,26.36
2019-03-21T13:47:38.434Z,27.00
2019-03-21T13:50:08.028Z,28.55
2019-03-21T13:52:37.668Z,27.96
2019-03-21T13:55:07.342Z,26.07
2019-03-21T13:57:36.949Z,27.03
2019-03-21T14:00:07.322Z,27.72
2019-03-21T14:02:36.963Z,28.71
2019-03-21T14:05:07.236Z,28.04
2019-03-21T14:07:39.123Z,28.71
2019-03-21T14:10:08.947Z,29.04
2019-03-21T14:12:38.561Z,29.42
2019-03-21T14:15:08.203Z,30.16
2019-03-21T14:17:37.818Z,29.73
2019-03-21T14:20:07.972Z,29.38
2019-03-21T14:22:37.618Z,30.22
2019-03-21T14:25:07.565Z,30.93
2019-03-21T14:27:37.206Z,30.88
2019-03-21T14:30:07.052Z,31.37
2019-03-21T14:32:36.669Z,31.27
2019-03-21T14:35:07.386Z,32.03
2019-03-21T14:37:37.010Z,31.11
2019-03-21T14:40:08.632Z,30.98
2019-03-21T14:42:39.871Z,32.29
2019-03-21T14:45:09.718Z,32.26
2019-03-21T14:47:39.393Z,32.36
2019-03-21T14:50:10.801Z,33.37
2019-03-21T14:52:41.454Z,33.35
2019-03-21T14:55:11.690Z,33.74
2019-03-21T14:57:44.842Z,32.71
2019-03-21T15:00:19.273Z,33.00
2019-03-21T15:02:48.918Z,32.85
2019-03-21T15:05:18.487Z,32.84
2019-03-21T15:07:48.124Z,32.68
2019-03-21T15:10:17.780Z,31.85
2019-03-21T15:12:47.381Z,32.03
2019-03-21T15:15:17.041Z,32.33
2019-03-21T15:17:46.759Z,32.80
2019-03-21T15:20:16.677Z,33.43
2019-03-21T15:22:46.355Z,32.13
2019-03-21T15:25:16.254Z,31.64
2019-03-21T15:27:45.874Z,31.48
2019-03-21T15:30:17.269Z,31.53
2019-03-21T15:32:48.440Z,32.18
2019-03-21T15:35:18.008Z,31.72
2019-03-21T15:37:47.574Z,31.62
2019-03-21T15:40:17.204Z,32.79
2019-03-21T15:42:46.877Z,32.13
2019-03-21T15:45:22.786Z,32.80
2019-03-21T15:47:48.387Z,31.94
2019-03-21T15:50:31.426Z,32.44
2019-03-21T15:53:01.231Z,31.92
2019-03-21T15:55:42.285Z,32.41
2019-03-21T15:58:11.874Z,31.91
2019-03-21T16:00:42.049Z,31.37
2019-03-21T16:03:11.656Z,30.48
2019-03-21T16:05:41.306Z,31.46
2019-03-21T16:08:10.937Z,32.11
2019-03-21T16:10:40.510Z,32.86
2019-03-21T16:13:10.154Z,32.67
2019-03-21T16:15:39.727Z,32.09
2019-03-21T16:18:09.393Z,31.36
2019-03-21T16:20:38.975Z,31.27
2019-03-21T16:23:08.658Z,30.97
2019-03-21T16:25:38.183Z,31.89
2019-03-21T16:28:07.826Z,31.62
2019-03-21T16:30:37.470Z,30.95
2019-03-21T16:33:07.098Z,31.32
2019-03-21T16:35:36.841Z,32.34
2019-03-21T16:38:08.475Z,31.67
2019-03-21T16:40:38.037Z,31.62
2019-03-21T16:43:09.154Z,31.93
2019-03-21T16:45:38.740Z,31.24
2019-03-21T16:48:09.294Z,31.51
2019-03-21T16:50:39.232Z,31.59
2019-03-21T16:53:09.451Z,31.50
2019-03-21T16:55:39.121Z,32.25
2019-03-21T16:58:08.755Z,31.46
2019-03-21T17:00:38.337Z,31.65
2019-03-21T17:03:07.946Z,32.09
2019-03-21T17:05:37.585Z,32.58
2019-03-21T17:08:11.603Z,32.06
2019-03-21T17:10:38.629Z,32.96
2019-03-21T17:13:09.548Z,32.76
2019-03-21T17:15:39.230Z,33.76
2019-03-21T17:18:08.834Z,33.68
2019-03-21T17:20:38.462Z,34.25
2019-03-21T17:23:08.336Z,33.79
2019-03-21T17:25:38.339Z,34.32
2019-03-21T17:28:10.074Z,34.29
2019-03-21T17:30:39.766Z,35.50
2019-03-21T17:33:10.866Z,36.19
2019-03-21T17:35:40.520Z,37.34
2019-03-21T17:38:10.160Z,38.23
2019-03-21T17:40:44.293Z,37.91
2019-03-21T17:43:17.408Z,37.78
2019-03-21T17:45:51.009Z,38.05
2019-03-21T17:48:20.642Z,38.23
2019-03-21T17:50:50.194Z,38.92
2019-03-21T17:53:19.864Z,38.32
2019-03-21T17:55:49.548Z,38.59
2019-03-21T17:58:19.131Z,38.93
2019-03-21T18:00:48.968Z,39.14
2019-03-21T18:03:21.101Z,39.39
2019-03-21T18:05:50.793Z,40.14
2019-03-21T18:08:20.436Z,40.84
2019-03-21T18:10:50.037Z,43.22
2019-03-21T18:13:19.648Z,45.18
2019-03-21T18:15:49.277Z,46.54
2019-03-21T18:18:20.747Z,48.10
2019-03-21T18:20:50.364Z,48.91
2019-03-21T18:23:21.200Z,49.56
2019-03-21T18:25:50.879Z,50.18
2019-03-21T18:28:20.548Z,51.61
2019-03-21T18:30:50.164Z,52.09
2019-03-21T18:33:19.898Z,51.89
2019-03-21T18:35:49.679Z,53.07
2019-03-21T18:38:19.367Z,53.70
2019-03-21T18:40:49.229Z,54.66
2019-03-21T18:43:18.919Z,55.61
2019-03-21T18:45:48.865Z,56.09
2019-03-21T18:48:19.658Z,56.19
2019-03-21T18:50:49.507Z,56.48
2019-03-21T18:53:19.397Z,57.26
2019-03-21T18:55:49.222Z,58.31
2019-03-21T18:58:19.012Z,58.47
2019-03-21T19:00:48.677Z,59.08
2019-03-21T19:03:18.222Z,58.70
2019-03-21T19:05:49.751Z,58.98
2019-03-21T19:08:21.318Z,58.65
2019-03-21T19:10:50.991Z,59.38
2019-03-21T19:13:22.133Z,58.85
2019-03-21T19:15:51.781Z,59.81
2019-03-21T19:18:21.397Z,61.06
2019-03-21T19:20:51.039Z,60.89
2019-03-21T19:23:21.816Z,62.07
2019-03-21T19:25:51.511Z,62.07
2019-03-21T19:28:21.243Z,62.34
2019-03-21T19:30:50.878Z,63.05
2019-03-21T19:33:20.554Z,63.52
2019-03-21T19:35:50.170Z,63.90
2019-03-21T19:38:19.896Z,63.87
2019-03-21T19:40:51.514Z,64.34
2019-03-21T19:43:21.135Z,64.45
2019-03-21T19:45:51.037Z,65.37
2019-03-21T19:48:20.758Z,65.42
2019-03-21T19:50:50.322Z,65.60
2019-03-21T19:53:19.997Z,66.09
2019-03-21T19:55:51.908Z,67.24
2019-03-21T19:58:23.547Z,67.61
2019-03-21T20:00:53.185Z,67.92
2019-03-21T20:03:24.107Z,67.95
2019-03-21T20:06:00.242Z,68.16
2019-03-21T20:08:27.509Z,68.38
2019-03-21T20:10:57.180Z,68.39
2019-03-21T20:13:29.441Z,67.95
2019-03-21T20:15:59.032Z,69.10
2019-03-21T20:18:28.684Z,69.08
2019-03-21T20:20:58.359Z,69.08
2019-03-21T20:23:29.490Z,69.63
2019-03-21T20:25:59.162Z,69.81
2019-03-21T20:28:28.805Z,69.57
2019-03-21T20:30:58.437Z,69.86
2019-03-21T20:33:28.178Z,70.55
2019-03-21T20:35:57.866Z,70.32
2019-03-21T20:38:30.042Z,70.87
2019-03-21T20:40:59.677Z,71.63
2019-03-21T20:43:29.350Z,72.77
2019-03-21T20:45:58.937Z,72.98
2019-03-21T20:48:30.345Z,73.18
2019-03-21T20:50:59.933Z,73.03
2019-03-21T20:53:30.543Z,72.62
2019-03-21T20:56:00.247Z,73.01
2019-03-21T20:58:31.090Z,72.90
2019-03-21T21:01:00.708Z,74.32
2019-03-21T21:03:31.861Z,74.25
2019-03-21T21:06:01.517Z,74.23
2019-03-21T21:08:31.173Z,74.17
2019-03-21T21:11:00.809Z,73.51
2019-03-21T21:13:31.649Z,73.14
2019-03-21T21:16:05.351Z,74.16
2019-03-21T21:18:35.151Z,73.75
2019-03-21T21:21:04.737Z,73.95
2019-03-21T21:23:40.538Z,73.92
2019-03-21T21:26:10.294Z,74.32
2019-03-21T21:28:40.171Z,74.08
2019-03-21T21:31:14.309Z,74.59
2019-03-21T21:34:04.821Z,75.35
2019-03-21T21:36:35.942Z,75.47
2019-03-21T21:39:08.152Z,75.42
2019-03-21T21:41:43.066Z,75.52
2019-03-21T21:44:15.059Z,75.67
2019-03-21T21:46:44.866Z,75.76
2019-03-21T21:49:15.825Z,75.57
2019-03-21T21:51:46.883Z,76.00
2019-03-21T21:54:21.040Z,75.72
2019-03-21T21:56:51.017Z,75.50
2019-03-21T21:59:21.287Z,77.08
2019-03-21T22:01:51.225Z,77.50
2019-03-21T22:04:21.011Z,77.19
2019-03-21T22:06:53.484Z,76.76
2019-03-21T22:09:23.534Z,76.56
2019-03-21T22:11:55.169Z,76.89
2019-03-21T22:14:25.010Z,77.36
2019-03-21T22:16:54.786Z,78.80
2019-03-21T22:19:26.051Z,78.84
2019-03-21T22:21:57.751Z,78.64
2019-03-21T22:24:27.583Z,78.36
2019-03-21T22:26:58.567Z,78.62
2019-03-21T22:29:30.388Z,78.98
2019-03-21T22:31:59.959Z,79.18
2019-03-21T22:34:30.182Z,79.14
2019-03-21T22:37:01.225Z,79.01
2019-03-21T22:39:30.834Z,79.47
2019-03-21T22:42:02.546Z,79.41
2019-03-21T22:44:32.215Z,78.88
2019-03-21T22:47:03.312Z,78.37
2019-03-21T22:49:34.831Z,78.91
2019-03-21T22:52:04.429Z,79.52
2019-03-21T22:54:34.247Z,79.17
2019-03-21T22:57:06.226Z,79.34
2019-03-21T22:59:37.299Z,78.95
2019-03-21T23:02:11.123Z,78.95
2019-03-21T23:04:42.313Z,79.39
2019-03-21T23:07:12.396Z,79.04
2019-03-21T23:09:44.375Z,79.27
2019-03-21T23:12:17.054Z,79.01
2019-03-21T23:14:48.738Z,81.01
2019-03-21T23:17:18.381Z,80.96
2019-03-21T23:19:48.086Z,81.08
2019-03-21T23:22:17.704Z,80.75
2019-03-21T23:24:50.633Z,81.12
2019-03-21T23:27:21.834Z,80.63
2019-03-21T23:29:53.282Z,80.62
2019-03-21T23:32:22.962Z,81.12
2019-03-21T23:34:55.963Z,80.09
2019-03-21T23:37:25.614Z,80.87
2019-03-21T23:39:55.186Z,80.42
2019-03-21T23:42:25.769Z,80.88
2019-03-21T23:44:55.501Z,81.18
2019-03-21T23:47:25.189Z,80.73
2019-03-21T23:49:54.897Z,80.56
2019-03-21T23:52:24.544Z,81.45
2019-03-21T23:54:55.009Z,80.76
2019-03-21T23:57:24.751Z,81.71
2019-03-21T23:59:54.508Z,82.02
